Calahorra, Spain
Current Conditions -  °F | °C
As of 4:00 PM on Friday 24 Oct 2014 (Local Time) from LELO Reporting Station
Clear Clear  
Wind Chill: 82°   Ceiling: Unl
Heat Index: 82°   Visibility: 6mi
Dew Point: 48°   Wind: 10mph
Humidity: 30%   Direction: 250°WSW
Pressure: 30.06"   Gusts: NA
Location:  42.3°N, 1.97°W
Report Text: LELO 241400Z 25009KT CAVOK 28/09 Q1018
Loading
Personal Weather Stations






























Interactive Weather Map
Tropical Storm Tracking
New forecast layout! Learn more

10-Day Weather Forecast

Advertisements
Track Severe Weather on mobile